Nbp Island — V2FH3 — position and weather

sailwx.info

Track history (hours):
 
Tides and Currents Weather Stations Pressure Air Temp Water Temp Dewpoint Dewpoint Depression Visibility Wind Speed Wind Dir Waves Ship Positions

Nbp Island

Last reported at 2014-Jul-22 21:28 UTC. Time now 2014-Jul-30 23:21 UTC.
Position N 40°44' E 029°45'.
Warning: this ship's position is 8 days out of date.

Length 107 m; draft 5.2 m.

Type: Cargo ship. MMSI: 305674000.

Date/timePositionNaut miles runAvg speedWind from/ knotsBaromVisibWave heightAir tempDewpointWater temp
2014-Jul-22 21:28N 40°44' E 029°45'  
2014-Jul-19 19:13N 38°17' E 025°48'4211.2
2014-Jul-19 15:27N 37°35' E 025°52'1010.7
2014-Jul-19 14:33N 37°26' E 025°55'1111.0
2014-Jul-19 13:33N 37°16' E 026°02'1110.9
2014-Jul-19 12:31N 37°06' E 026°09'1010.7
2014-Jul-19 11:32N 36°57' E 026°15'2310.6
2014-Jul-19 09:20N 36°41' E 026°37'3111.2
2014-Jul-19 06:33N 36°20' E 027°05'  
Track history (hours):
 
Tides and Currents Weather Stations Pressure Air Temp Water Temp Dewpoint Dewpoint Depression Visibility Wind Speed Wind Dir Waves Ship Positions

Nbp Island

Last reported at 2014-Jul-22 21:28 UTC. Time now 2014-Jul-30 23:21 UTC.
Position N 40°44' E 029°45'.
Warning: this ship's position is 8 days out of date.

Length 107 m; draft 5.2 m.

Type: Cargo ship. MMSI: 305674000.

Date/timePositionNaut miles runAvg speedWind from/ knotsBaromVisibWave heightAir tempDewpointWater temp
2014-Jul-22 21:28N 40°44' E 029°45'  
2014-Jul-19 19:13N 38°17' E 025°48'4211.2
2014-Jul-19 15:27N 37°35' E 025°52'1010.7
2014-Jul-19 14:33N 37°26' E 025°55'1111.0
2014-Jul-19 13:33N 37°16' E 026°02'1110.9
2014-Jul-19 12:31N 37°06' E 026°09'1010.7
2014-Jul-19 11:32N 36°57' E 026°15'2310.6
2014-Jul-19 09:20N 36°41' E 026°37'3111.2
2014-Jul-19 06:33N 36°20' E 027°05'  

Dump ship's entire track history